Paradise, California
Current Conditions -  °F | °C
As of 2:55 AM on Saturday 25 Oct 2014 (Local Time) from KCIC Reporting Station
Overcast Overcast  
Wind Chill: 64°   Ceiling: 5000
Heat Index: 64°   Visibility: 10mi
Dew Point: 52°   Wind: 22mph
Humidity: 64%   Direction: 130°SE
Pressure: 29.87"   Gusts: NA
Location:  39.75°N, 121.6°W
Report Text: KCIC 250955Z AUTO 13019KT 10SM OVC050 18/11 A2987 RMK AO1
Loading
Personal Weather Stations






























Interactive Weather Map New forecast layout! Learn more

10-Day Weather Forecast

Advertisements
Track Severe Weather on mobile